Time;durP1;ratioP1;P1;durP2;ratioP2;P2;SDS_P1;SDS_P2;PMS_P1;PMS_P2;Temp;Humidity;BMP_temperature;BMP_pressure;BME280_temperature;BME280_humidity;BME280_pressure;Samples;Min_cycle;Max_cycle;Signal;HPM_P1;HPM_P2
2022/01/26 00:06:31;;;;;;;7.03;4.50;;;3.20;99.90;;;;;;5051135;28;20530;-69
2022/01/26 00:08:58;;;;;;;8.33;4.60;;;3.10;99.90;;;;;;5035101;28;20533;-70
2022/01/26 00:11:24;;;;;;;10.00;5.40;;;3.10;99.90;;;;;;5052546;28;20303;-70
2022/01/26 00:13:51;;;;;;;7.50;4.57;;;3.10;99.90;;;;;;5071248;28;20454;-70
2022/01/26 00:16:27;;;;;;;11.63;5.63;;;3.10;99.90;;;;;;5070833;28;20468;-70
2022/01/26 00:18:57;;;;;;;11.33;4.73;;;3.20;99.90;;;;;;5071346;28;20453;-69
2022/01/26 00:21:36;;;;;;;15.00;5.07;;;3.20;99.90;;;;;;5069937;28;20531;-69
2022/01/26 00:24:25;;;;;;;7.13;4.40;;;3.20;99.90;;;;;;5054587;28;20457;-69
2022/01/26 00:29:31;;;;;;;8.17;4.60;;;3.20;99.90;;;;;;5088913;28;20461;-69
2022/01/26 00:40:16;;;;;;;9.43;4.47;;;3.10;99.90;;;;;;5039056;28;20538;-69
2022/01/26 00:42:45;;;;;;;8.43;4.50;;;3.10;99.90;;;;;;5067333;28;20458;-68
2022/01/26 00:45:10;;;;;;;10.83;4.80;;;3.10;99.90;;;;;;5050692;28;20450;-70
2022/01/26 00:47:37;;;;;;;9.47;5.10;;;3.00;99.90;;;;;;5050362;28;20447;-69
2022/01/26 00:50:07;;;;;;;10.77;5.00;;;3.00;99.90;;;;;;5050461;28;20212;-69
2022/01/26 00:52:39;;;;;;;7.83;4.90;;;3.00;99.90;;;;;;5057539;28;20446;-69
2022/01/26 00:55:08;;;;;;;8.90;5.13;;;3.00;99.90;;;;;;5062367;28;20536;-69
2022/01/26 00:57:34;;;;;;;10.93;4.97;;;2.90;99.90;;;;;;5050571;28;20521;-69
2022/01/26 01:00:00;;;;;;;7.43;4.43;;;2.90;99.90;;;;;;5033071;28;20529;-69
2022/01/26 01:02:27;;;;;;;11.83;5.67;;;2.80;99.90;;;;;;5044943;28;20240;-68
2022/01/26 01:04:55;;;;;;;7.40;4.20;;;2.80;99.90;;;;;;5049749;28;20457;-70
2022/01/26 01:07:23;;;;;;;9.70;4.63;;;2.80;99.90;;;;;;5041344;28;20530;-69
2022/01/26 01:09:48;;;;;;;12.47;6.13;;;2.80;99.90;;;;;;5050306;28;20450;-69
2022/01/26 01:12:14;;;;;;;10.70;5.20;;;2.80;99.90;;;;;;5050875;28;20509;-70
2022/01/26 01:14:42;;;;;;;9.17;5.17;;;2.80;99.90;;;;;;5051291;28;20220;-69
2022/01/26 01:17:12;;;;;;;10.10;5.20;;;2.80;99.90;;;;;;5050657;28;20224;-70
2022/01/26 01:19:52;;;;;;;11.90;4.83;;;2.80;99.90;;;;;;5049810;28;20458;-69
2022/01/26 01:30:26;;;;;;;7.93;4.37;;;2.80;99.90;;;;;;5046431;28;20478;-69
2022/01/26 01:33:06;;;;;;;10.23;5.30;;;2.90;99.90;;;;;;5051166;28;20461;-70
2022/01/26 01:35:36;;;;;;;11.50;6.10;;;2.90;99.90;;;;;;5048907;28;20531;-69
2022/01/26 01:38:09;;;;;;;10.50;5.73;;;2.80;99.90;;;;;;5046254;28;20598;-70
2022/01/26 01:40:40;;;;;;;8.80;4.80;;;2.80;99.90;;;;;;5050400;28;20888;-69
2022/01/26 01:43:06;;;;;;;8.43;4.27;;;2.80;99.90;;;;;;5048664;28;20466;-68
2022/01/26 01:45:46;;;;;;;8.27;4.93;;;2.90;99.90;;;;;;5058010;28;20450;-69
2022/01/26 01:48:16;;;;;;;7.30;3.97;;;2.90;99.90;;;;;;5049076;28;20450;-72
2022/01/26 01:50:43;;;;;;;12.50;5.87;;;2.80;99.90;;;;;;5050531;28;20512;-69
2022/01/26 01:53:10;;;;;;;11.90;5.00;;;2.80;99.90;;;;;;5082428;28;20929;-69
2022/01/26 01:55:41;;;;;;;14.03;6.10;;;2.80;99.90;;;;;;5050031;28;20458;-69
2022/01/26 01:58:08;;;;;;;9.80;4.47;;;2.80;99.90;;;;;;5047776;28;20458;-70
2022/01/26 02:00:35;;;;;;;9.70;5.03;;;2.70;99.90;;;;;;5049220;28;20557;-69
2022/01/26 02:03:00;;;;;;;12.00;4.27;;;2.80;99.90;;;;;;5082548;28;20462;-70
2022/01/26 02:05:26;;;;;;;11.07;4.63;;;2.80;99.90;;;;;;5065308;28;20466;-70
2022/01/26 02:07:53;;;;;;;9.03;4.77;;;2.80;99.90;;;;;;5049254;28;20231;-69
2022/01/26 02:10:21;;;;;;;8.20;3.80;;;2.80;99.90;;;;;;5049505;28;20871;-69
2022/01/26 02:12:51;;;;;;;7.83;5.67;;;2.90;99.90;;;;;;5050426;28;20446;-71
2022/01/26 02:15:22;;;;;;;9.27;5.50;;;2.90;99.90;;;;;;5048542;28;20446;-69
2022/01/26 02:55:52;;;;;;;10.57;4.93;;;2.80;99.90;;;;;;5029096;28;20505;-69
2022/01/26 03:03:54;;;;;;;14.77;5.10;;;2.70;99.90;;;;;;5044547;28;20454;-69
2022/01/26 03:06:27;;;;;;;11.30;4.80;;;2.80;99.90;;;;;;5031351;28;20450;-69
2022/01/26 03:08:59;;;;;;;14.30;5.80;;;2.70;99.90;;;;;;5048149;28;20498;-69
2022/01/26 03:11:28;;;;;;;17.00;5.17;;;2.70;99.90;;;;;;5029649;28;20518;-69
2022/01/26 03:14:04;;;;;;;11.83;5.07;;;2.60;99.90;;;;;;5048425;28;20461;-70
2022/01/26 03:16:35;;;;;;;12.50;6.27;;;2.60;99.90;;;;;;5047944;28;20450;-70
2022/01/26 03:19:16;;;;;;;;;;;;;;;;;;;;;
2022/01/26 03:21:47;;;;;;;9.10;3.90;;;2.60;99.90;;;;;;5055788;28;20458;-70
2022/01/26 03:29:55;;;;;;;9.87;4.80;;;2.60;99.90;;;;;;5057258;28;20514;-70
2022/01/26 03:35:14;;;;;;;13.23;4.37;;;2.50;99.90;;;;;;5047817;28;20462;-70
2022/01/26 03:37:49;;;;;;;9.93;4.90;;;2.50;99.90;;;;;;5037384;28;20455;-70
2022/01/26 03:40:15;;;;;;;10.30;4.80;;;2.50;99.90;;;;;;5044910;28;20483;-69
2022/01/26 03:42:41;;;;;;;13.50;5.07;;;2.50;99.90;;;;;;5047949;28;20450;-69
2022/01/26 03:45:07;;;;;;;10.70;5.10;;;2.40;99.90;;;;;;5047922;28;20819;-69
2022/01/26 03:47:33;;;;;;;11.73;5.00;;;2.40;99.90;;;;;;5048587;28;20302;-69
2022/01/26 03:49:58;;;;;;;10.27;5.13;;;2.40;99.90;;;;;;5031702;28;20462;-69
2022/01/26 03:52:24;;;;;;;13.17;5.20;;;2.30;99.90;;;;;;5049143;28;20302;-69
2022/01/26 03:54:50;;;;;;;8.63;4.13;;;2.30;99.90;;;;;;5047428;28;20215;-69
2022/01/26 03:57:15;;;;;;;9.63;4.17;;;2.30;99.90;;;;;;5049441;28;20243;-70
2022/01/26 03:59:41;;;;;;;9.53;4.97;;;2.30;99.90;;;;;;5052173;28;20315;-70
2022/01/26 04:02:07;;;;;;;11.67;5.37;;;2.30;99.90;;;;;;5050719;28;20251;-69
2022/01/26 04:04:40;;;;;;;7.90;4.50;;;2.30;99.90;;;;;;5051382;28;20298;-70
2022/01/26 04:07:06;;;;;;;12.97;5.60;;;2.30;99.90;;;;;;5051266;28;20458;-68
2022/01/26 04:09:32;;;;;;;13.60;5.17;;;2.30;99.90;;;;;;5051747;28;20863;-69
2022/01/26 04:11:59;;;;;;;7.97;4.40;;;2.30;99.90;;;;;;5051633;28;20307;-70
2022/01/26 04:14:29;;;;;;;12.90;5.00;;;2.40;99.90;;;;;;5051962;28;20270;-69
2022/01/26 04:16:54;;;;;;;9.53;4.70;;;2.40;99.90;;;;;;5050527;28;20465;-69
2022/01/26 04:19:21;;;;;;;15.03;6.23;;;2.40;99.90;;;;;;5050794;28;20845;-70
2022/01/26 04:29:25;;;;;;;10.63;6.30;;;2.40;99.90;;;;;;5052027;28;20219;-69
2022/01/26 04:31:51;;;;;;;12.87;6.90;;;2.40;99.90;;;;;;5050970;28;20508;-69
2022/01/26 04:34:18;;;;;;;11.93;5.27;;;2.30;99.90;;;;;;5046810;28;21262;-69
2022/01/26 04:36:53;;;;;;;14.10;7.00;;;2.30;99.90;;;;;;5043471;28;20216;-69
2022/01/26 04:39:31;;;;;;;11.77;5.57;;;2.30;99.90;;;;;;5058873;28;20458;-69
2022/01/26 04:42:11;;;;;;;12.87;5.53;;;2.20;99.90;;;;;;5056212;28;20470;-69
2022/01/26 04:44:47;;;;;;;10.63;5.70;;;2.20;99.90;;;;;;5050275;28;20474;-68
2022/01/26 04:47:12;;;;;;;11.77;5.60;;;2.20;99.90;;;;;;5051244;28;20989;-70
2022/01/26 04:49:38;;;;;;;7.80;4.53;;;2.30;99.90;;;;;;5052068;28;20446;-70
2022/01/26 04:52:04;;;;;;;10.60;5.63;;;2.30;99.90;;;;;;5051540;28;20742;-70
2022/01/26 04:54:30;;;;;;;10.97;5.00;;;2.20;99.90;;;;;;5049345;28;20280;-70
2022/01/26 04:56:56;;;;;;;16.93;4.70;;;2.20;99.90;;;;;;5050258;28;20507;-69
2022/01/26 04:59:22;;;;;;;9.83;4.57;;;2.20;99.90;;;;;;5050584;28;20462;-70
2022/01/26 05:01:47;;;;;;;9.43;5.30;;;2.20;99.90;;;;;;5047424;28;20602;-70
2022/01/26 05:04:13;;;;;;;13.17;6.13;;;2.20;99.90;;;;;;5049542;28;20226;-69
2022/01/26 05:06:39;;;;;;;13.63;6.47;;;2.20;99.90;;;;;;5051223;28;20216;-69
2022/01/26 05:09:05;;;;;;;13.37;4.77;;;2.20;99.90;;;;;;5050572;28;20766;-70
2022/01/26 05:11:37;;;;;;;7.80;4.80;;;2.20;99.90;;;;;;5043610;28;20724;-70
2022/01/26 05:14:04;;;;;;;10.30;5.20;;;2.20;99.90;;;;;;5049995;28;20220;-69
2022/01/26 05:16:30;;;;;;;10.57;4.77;;;2.20;99.90;;;;;;5049750;28;20443;-70
2022/01/26 05:18:57;;;;;;;7.80;4.70;;;2.30;99.90;;;;;;5051582;28;20464;-69
2022/01/26 05:21:25;;;;;;;14.40;6.17;;;2.40;99.90;;;;;;5051383;28;20474;-69
2022/01/26 05:23:51;;;;;;;16.93;6.37;;;2.40;99.90;;;;;;5056805;28;20481;-70
2022/01/26 05:26:17;;;;;;;9.87;5.87;;;2.40;99.90;;;;;;5041349;28;20450;-69
2022/01/26 05:28:43;;;;;;;9.33;5.47;;;2.40;99.90;;;;;;5050088;28;20461;-69
2022/01/26 05:31:08;;;;;;;9.13;5.10;;;2.40;99.90;;;;;;5042357;28;20223;-69
2022/01/26 05:33:34;;;;;;;9.23;5.07;;;2.40;99.90;;;;;;5049583;28;20282;-68
2022/01/26 05:36:00;;;;;;;12.00;5.20;;;2.50;99.90;;;;;;5033101;28;20228;-69
2022/01/26 05:38:26;;;;;;;13.20;5.33;;;2.40;99.90;;;;;;5031579;28;20224;-70
2022/01/26 05:40:51;;;;;;;6.50;4.27;;;2.40;99.90;;;;;;5049524;28;20227;-69
2022/01/26 05:43:17;;;;;;;10.23;4.80;;;2.40;99.90;;;;;;5059027;28;20243;-69
2022/01/26 05:45:48;;;;;;;9.10;4.47;;;2.50;99.90;;;;;;5060116;28;20756;-69
2022/01/26 05:48:14;;;;;;;9.87;6.07;;;2.50;99.90;;;;;;5053520;28;20491;-70
2022/01/26 05:50:49;;;;;;;9.33;5.00;;;2.50;99.90;;;;;;5045238;28;20522;-69
2022/01/26 05:53:16;;;;;;;8.80;5.60;;;2.40;99.90;;;;;;5030856;28;20805;-70
2022/01/26 05:55:42;;;;;;;9.83;5.50;;;2.40;99.90;;;;;;5032935;28;20471;-69
2022/01/26 05:58:07;;;;;;;11.93;5.00;;;2.40;99.90;;;;;;5048982;28;20473;-71
2022/01/26 06:00:33;;;;;;;7.37;4.80;;;2.40;99.90;;;;;;5026493;28;20474;-69
2022/01/26 06:02:59;;;;;;;12.27;5.70;;;2.40;99.90;;;;;;5050754;28;20807;-71
2022/01/26 06:05:25;;;;;;;9.93;5.13;;;2.40;99.90;;;;;;5050020;28;20224;-70
2022/01/26 06:07:51;;;;;;;7.83;5.03;;;2.40;99.90;;;;;;5048378;28;20238;-70
2022/01/26 06:10:16;;;;;;;10.47;5.57;;;2.50;99.90;;;;;;5059418;28;20243;-70
2022/01/26 06:12:42;;;;;;;9.90;5.10;;;2.50;99.90;;;;;;5069031;28;20243;-70
2022/01/26 06:15:08;;;;;;;9.57;5.33;;;2.50;99.90;;;;;;5069799;28;20219;-70
2022/01/26 06:17:34;;;;;;;9.53;4.47;;;2.40;99.90;;;;;;5062043;28;20302;-71
2022/01/26 06:20:00;;;;;;;8.77;4.93;;;2.40;99.90;;;;;;5069450;28;20568;-71
2022/01/26 06:22:26;;;;;;;9.00;4.83;;;2.40;99.90;;;;;;5068764;28;20238;-70
2022/01/26 06:24:54;;;;;;;9.57;4.37;;;2.40;99.90;;;;;;5037208;28;20295;-69
2022/01/26 06:27:19;;;;;;;6.33;3.23;;;2.40;99.90;;;;;;5042684;28;20224;-70
2022/01/26 06:29:45;;;;;;;7.80;4.10;;;2.40;99.90;;;;;;5031241;28;20457;-70
2022/01/26 06:32:11;;;;;;;9.43;4.67;;;2.40;99.90;;;;;;5065066;28;20294;-70
2022/01/26 06:34:39;;;;;;;7.13;4.20;;;2.40;99.90;;;;;;5066958;28;20458;-70
2022/01/26 06:37:06;;;;;;;9.60;5.47;;;2.40;99.90;;;;;;5048053;28;20621;-69
2022/01/26 06:39:32;;;;;;;7.43;4.20;;;2.40;99.90;;;;;;5047713;28;20459;-69
2022/01/26 06:41:58;;;;;;;5.23;3.83;;;2.40;99.90;;;;;;5048311;28;20633;-69
2022/01/26 06:44:36;;;;;;;9.50;4.80;;;2.40;99.90;;;;;;5049451;28;20230;-69
2022/01/26 06:49:37;;;;;;;7.53;4.13;;;2.40;99.90;;;;;;5044452;28;20457;-69
2022/01/26 06:52:03;;;;;;;6.83;4.20;;;2.40;99.90;;;;;;5048083;28;20458;-69
2022/01/26 06:54:29;;;;;;;8.70;3.97;;;2.40;99.90;;;;;;5043001;28;20223;-70
2022/01/26 06:56:55;;;;;;;10.87;4.20;;;2.40;99.90;;;;;;5068324;28;20460;-69
2022/01/26 06:59:23;;;;;;;8.57;4.90;;;2.40;99.90;;;;;;5077273;28;20274;-69
2022/01/26 07:01:49;;;;;;;7.17;3.93;;;2.40;99.90;;;;;;5053214;28;20475;-68
2022/01/26 07:04:14;;;;;;;5.00;3.63;;;2.40;99.90;;;;;;5037628;28;20464;-70
2022/01/26 07:06:40;;;;;;;6.80;4.27;;;2.40;99.90;;;;;;5027488;28;20231;-70
2022/01/26 07:09:06;;;;;;;8.97;4.40;;;2.50;99.90;;;;;;5038116;28;20979;-70
2022/01/26 07:11:32;;;;;;;7.63;3.83;;;2.50;99.90;;;;;;5047405;28;20216;-70
2022/01/26 07:14:00;;;;;;;6.70;3.60;;;2.40;99.90;;;;;;5044995;28;20697;-70
2022/01/26 07:21:55;;;;;;;7.50;3.33;;;2.30;99.90;;;;;;5043034;28;20745;-70
2022/01/26 07:24:20;;;;;;;5.90;3.70;;;2.30;99.90;;;;;;5026860;28;20539;-71
2022/01/26 07:26:50;;;;;;;7.33;4.10;;;2.30;99.90;;;;;;5046428;28;20247;-70
2022/01/26 07:29:21;;;;;;;5.33;3.50;;;2.30;99.90;;;;;;5027957;28;20254;-71
2022/01/26 07:31:48;;;;;;;9.13;4.60;;;2.30;99.90;;;;;;5051408;28;20454;-70
2022/01/26 07:34:14;;;;;;;6.03;3.60;;;2.40;99.90;;;;;;5043893;28;20467;-69
2022/01/26 07:36:41;;;;;;;7.30;4.70;;;2.40;99.90;;;;;;5050221;28;20488;-69
2022/01/26 07:39:11;;;;;;;6.57;4.07;;;2.40;99.90;;;;;;5050508;28;20462;-69
2022/01/26 07:41:37;;;;;;;7.17;4.13;;;2.40;99.90;;;;;;5045942;28;20540;-69
2022/01/26 07:44:04;;;;;;;7.37;3.23;;;2.40;99.90;;;;;;5033086;28;20454;-70
2022/01/26 07:46:30;;;;;;;5.13;3.53;;;2.40;99.90;;;;;;5049268;28;20226;-70
2022/01/26 07:48:56;;;;;;;6.13;4.07;;;2.30;99.90;;;;;;5050961;28;20560;-70
2022/01/26 07:51:22;;;;;;;6.67;3.93;;;2.30;99.90;;;;;;5051273;28;20458;-70
2022/01/26 07:53:48;;;;;;;6.30;3.80;;;2.30;99.90;;;;;;5051956;28;20446;-69
2022/01/26 07:56:14;;;;;;;5.70;3.30;;;2.20;99.90;;;;;;5046872;28;20443;-70
2022/01/26 07:58:41;;;;;;;10.40;3.80;;;2.20;99.90;;;;;;5033567;28;20219;-69
2022/01/26 08:01:07;;;;;;;5.37;3.30;;;2.20;99.90;;;;;;5049937;28;20242;-70
2022/01/26 08:03:33;;;;;;;7.23;3.90;;;2.30;99.90;;;;;;5033609;28;20442;-70
2022/01/26 08:06:01;;;;;;;7.40;3.20;;;2.30;99.90;;;;;;5048854;28;20215;-69
2022/01/26 08:08:28;;;;;;;5.97;3.70;;;2.30;99.90;;;;;;5048834;28;20828;-70
2022/01/26 08:10:55;;;;;;;9.73;5.00;;;2.30;99.90;;;;;;5029879;28;20459;-71
2022/01/26 08:13:21;;;;;;;6.00;4.00;;;2.30;99.90;;;;;;5032661;28;20469;-69
2022/01/26 08:15:47;;;;;;;7.10;4.50;;;2.40;99.90;;;;;;5050783;28;20450;-70
2022/01/26 08:18:12;;;;;;;10.23;5.10;;;2.30;99.90;;;;;;5050817;28;20227;-71
2022/01/26 08:20:40;;;;;;;8.37;4.63;;;2.40;99.90;;;;;;5050122;28;20285;-70
2022/01/26 08:23:06;;;;;;;4.57;3.40;;;2.30;99.90;;;;;;5048655;28;20389;-69
2022/01/26 08:25:32;;;;;;;6.97;4.83;;;2.30;99.90;;;;;;5048321;28;20530;-69
2022/01/26 08:28:08;;;;;;;7.57;3.80;;;2.30;99.90;;;;;;5049699;28;20549;-70
2022/01/26 08:30:38;;;;;;;10.40;4.57;;;2.20;99.90;;;;;;5019705;28;20449;-68
2022/01/26 08:33:08;;;;;;;7.57;4.47;;;2.20;99.90;;;;;;5051473;28;20469;-70
2022/01/26 08:35:35;;;;;;;5.27;3.20;;;2.20;99.90;;;;;;5043609;28;20469;-70
2022/01/26 08:38:00;;;;;;;6.07;4.03;;;2.20;99.90;;;;;;5041096;28;20489;-70
2022/01/26 08:40:26;;;;;;;4.37;3.80;;;2.20;99.90;;;;;;5042902;28;20459;-69
2022/01/26 08:42:53;;;;;;;11.53;4.77;;;2.20;99.90;;;;;;5049150;28;20248;-69
2022/01/26 08:45:19;;;;;;;7.50;5.10;;;2.20;99.90;;;;;;5045468;28;20949;-70
2022/01/26 08:47:47;;;;;;;6.93;3.70;;;2.20;99.90;;;;;;5035758;28;20477;-70
2022/01/26 08:50:13;;;;;;;7.03;3.70;;;2.20;99.90;;;;;;5051134;28;20298;-69
2022/01/26 08:52:39;;;;;;;7.20;3.50;;;2.20;99.90;;;;;;5047640;28;20454;-69
2022/01/26 08:55:06;;;;;;;5.53;3.60;;;2.10;99.90;;;;;;5047135;28;20454;-70
2022/01/26 08:57:32;;;;;;;4.07;3.10;;;2.20;99.90;;;;;;5048169;28;20238;-69
2022/01/26 08:59:59;;;;;;;6.53;3.43;;;2.10;99.90;;;;;;5055920;28;21051;-70
2022/01/26 09:02:25;;;;;;;13.10;6.13;;;2.20;99.90;;;;;;5045564;28;20608;-69
2022/01/26 09:04:51;;;;;;;11.47;6.50;;;2.20;99.90;;;;;;5047085;28;20473;-70
2022/01/26 09:07:20;;;;;;;9.27;5.20;;;2.20;99.90;;;;;;5046395;28;20459;-70
2022/01/26 09:09:46;;;;;;;29.57;15.17;;;2.20;99.90;;;;;;5045026;28;20467;-69
2022/01/26 09:12:14;;;;;;;37.97;20.27;;;2.30;99.90;;;;;;5046516;28;20465;-69
2022/01/26 09:14:41;;;;;;;32.53;18.63;;;2.20;99.90;;;;;;5045456;28;20447;-68
2022/01/26 09:17:08;;;;;;;53.00;31.43;;;2.20;99.90;;;;;;5032253;28;20459;-69
2022/01/26 09:19:35;;;;;;;12.90;9.23;;;2.20;99.90;;;;;;5028321;28;20447;-68
2022/01/26 09:22:03;;;;;;;7.27;4.40;;;2.10;99.90;;;;;;5035788;28;21080;-69
2022/01/26 09:24:31;;;;;;;7.50;5.20;;;2.00;99.90;;;;;;5050226;28;20455;-69
2022/01/26 09:26:57;;;;;;;8.17;6.20;;;2.00;99.90;;;;;;5043890;28;21007;-69
2022/01/26 09:29:23;;;;;;;19.13;12.83;;;2.00;99.90;;;;;;5041088;28;20858;-68
2022/01/26 09:31:50;;;;;;;24.77;12.80;;;2.00;99.90;;;;;;5045664;28;20447;-69
2022/01/26 09:34:17;;;;;;;204.30;84.13;;;2.10;99.90;;;;;;5025459;28;20463;-70
2022/01/26 09:36:44;;;;;;;120.43;51.63;;;2.10;99.90;;;;;;5042174;28;20463;-70
2022/01/26 09:39:10;;;;;;;68.20;28.80;;;2.10;99.90;;;;;;5025800;28;20456;-70
2022/01/26 09:41:37;;;;;;;58.80;24.70;;;2.20;99.90;;;;;;5046000;28;20474;-69
2022/01/26 09:44:04;;;;;;;74.63;27.83;;;2.20;99.90;;;;;;5029454;28;20454;-70
2022/01/26 09:46:30;;;;;;;46.97;19.13;;;2.20;99.90;;;;;;5046065;28;20966;-70
2022/01/26 09:48:57;;;;;;;24.67;11.53;;;2.20;99.90;;;;;;5045897;28;20481;-69
2022/01/26 09:51:22;;;;;;;17.13;9.40;;;2.20;99.90;;;;;;5045914;28;20458;-70
2022/01/26 09:54:05;;;;;;;9.63;6.47;;;2.20;99.90;;;;;;5045303;28;20447;-68
2022/01/26 09:56:31;;;;;;;11.40;6.07;;;2.10;99.90;;;;;;5044421;28;20244;-69
2022/01/26 09:58:57;;;;;;;32.97;15.30;;;2.10;99.90;;;;;;5046602;28;20482;-69
2022/01/26 10:01:23;;;;;;;48.30;28.40;;;2.00;99.90;;;;;;5042653;28;20501;-68
2022/01/26 10:03:50;;;;;;;21.00;14.40;;;2.00;99.90;;;;;;5045196;28;20711;-68
2022/01/26 10:06:27;;;;;;;11.53;8.33;;;2.00;99.90;;;;;;5046020;28;20493;-70
2022/01/26 10:09:02;;;;;;;9.37;5.63;;;2.00;99.90;;;;;;5047238;28;20460;-70
2022/01/26 10:19:53;;;;;;;11.57;9.93;;;2.00;99.90;;;;;;5047492;28;20453;-70
2022/01/26 10:22:25;;;;;;;11.70;8.23;;;2.00;99.90;;;;;;5048850;28;20462;-70
2022/01/26 10:25:05;;;;;;;12.40;6.70;;;1.90;99.90;;;;;;5045209;28;20493;-69
2022/01/26 10:27:48;;;;;;;8.50;5.30;;;1.90;99.90;;;;;;5067695;28;20449;-69
2022/01/26 10:30:17;;;;;;;10.83;5.73;;;1.90;99.90;;;;;;5027141;28;20462;-70
2022/01/26 10:32:45;;;;;;;6.97;3.90;;;1.90;99.90;;;;;;5035291;28;20451;-69
2022/01/26 10:35:13;;;;;;;5.50;4.10;;;1.90;99.90;;;;;;5046711;28;20466;-70
2022/01/26 10:37:47;;;;;;;5.10;4.20;;;1.90;99.90;;;;;;5010441;28;20463;-70
2022/01/26 10:40:19;;;;;;;8.67;4.83;;;1.90;99.90;;;;;;5041150;28;20567;-70
2022/01/26 10:43:13;;;;;;;6.70;4.00;;;1.90;99.90;;;;;;5029615;28;20454;-69
2022/01/26 10:45:51;;;;;;;;;;;;;;;;;;;;;
2022/01/26 10:48:23;;;;;;;7.80;4.80;;;1.90;99.90;;;;;;5024716;28;20459;-70
2022/01/26 10:53:39;;;;;;;7.87;4.67;;;1.90;99.90;;;;;;5045121;28;20454;-68
2022/01/26 10:56:06;;;;;;;9.90;4.67;;;1.90;99.90;;;;;;5045838;28;20478;-69
2022/01/26 10:58:33;;;;;;;7.80;3.80;;;1.90;99.90;;;;;;5046026;28;20476;-69
2022/01/26 11:00:58;;;;;;;9.23;4.13;;;1.90;99.90;;;;;;5046089;28;20497;-70
2022/01/26 11:03:24;;;;;;;14.17;5.27;;;1.90;99.90;;;;;;5047403;28;20450;-68
2022/01/26 11:05:52;;;;;;;29.00;14.37;;;1.90;99.90;;;;;;5046164;28;20215;-69
2022/01/26 11:08:20;;;;;;;42.63;22.30;;;2.00;99.90;;;;;;5028796;28;20220;-68
2022/01/26 11:10:47;;;;;;;38.17;19.47;;;2.00;99.90;;;;;;5036705;28;20458;-68
2022/01/26 11:13:30;;;;;;;24.77;12.37;;;2.00;99.90;;;;;;5049580;28;21030;-69
2022/01/26 11:16:13;;;;;;;16.10;8.30;;;2.00;99.90;;;;;;5048111;28;20458;-70
2022/01/26 11:18:47;;;;;;;15.30;6.20;;;2.10;99.90;;;;;;5044150;28;20462;-70
2022/01/26 11:21:25;;;;;;;11.03;4.60;;;2.00;99.90;;;;;;5049096;28;20477;-68
2022/01/26 11:24:02;;;;;;;8.93;4.40;;;2.10;99.90;;;;;;5042552;28;20450;-69
2022/01/26 11:26:28;;;;;;;10.60;4.50;;;2.00;99.90;;;;;;5067979;28;20438;-69
2022/01/26 11:28:54;;;;;;;5.60;4.33;;;2.10;99.90;;;;;;5069791;28;20453;-70
2022/01/26 11:31:21;;;;;;;11.00;5.50;;;2.00;99.90;;;;;;5061283;28;20297;-70
2022/01/26 11:33:49;;;;;;;7.90;5.17;;;2.00;99.90;;;;;;5043566;28;20227;-70
2022/01/26 11:36:17;;;;;;;8.67;5.33;;;2.10;99.90;;;;;;5059631;28;20480;-69
2022/01/26 11:47:30;;;;;;;162.57;55.70;;;2.00;99.90;;;;;;5059308;28;20462;-68
2022/01/26 11:50:09;;;;;;;95.50;34.77;;;2.00;99.90;;;;;;5045044;28;20485;-70
2022/01/26 11:52:38;;;;;;;45.90;20.73;;;2.00;99.90;;;;;;5036363;28;20465;-70
2022/01/26 11:55:33;;;;;;;36.17;18.20;;;2.00;99.90;;;;;;5029951;28;20462;-70
2022/01/26 11:58:29;;;;;;;21.03;10.37;;;2.00;99.90;;;;;;5041995;28;20493;-69
2022/01/26 12:03:47;;;;;;;13.40;7.10;;;2.10;99.90;;;;;;5049390;28;20499;-67
2022/01/26 12:06:24;;;;;;;10.77;5.83;;;2.10;99.90;;;;;;5030283;28;20512;-70
2022/01/26 12:08:50;;;;;;;16.10;7.00;;;2.10;99.90;;;;;;5053316;28;21013;-69
2022/01/26 12:11:16;;;;;;;10.40;6.27;;;2.20;99.90;;;;;;5069077;28;20465;-70
2022/01/26 12:13:44;;;;;;;9.90;5.50;;;2.20;99.90;;;;;;5068974;28;20227;-69
2022/01/26 12:16:15;;;;;;;10.00;5.07;;;2.20;99.90;;;;;;5049289;28;20446;-70
2022/01/26 12:35:46;;;;;;;13.77;7.13;;;2.30;99.90;;;;;;5047072;28;20470;-68
2022/01/26 12:38:23;;;;;;;13.97;7.03;;;2.30;99.90;;;;;;5042825;28;20541;-68
2022/01/26 12:43:59;;;;;;;19.37;6.90;;;2.30;99.90;;;;;;5024322;28;20490;-70
2022/01/26 12:46:29;;;;;;;17.03;6.87;;;2.30;99.90;;;;;;5028784;28;21010;-68
2022/01/26 12:49:10;;;;;;;17.07;7.10;;;2.30;99.90;;;;;;5033475;28;20454;-69
2022/01/26 12:51:54;;;;;;;13.27;5.90;;;2.30;99.90;;;;;;5038482;28;20454;-67
2022/01/26 12:54:21;;;;;;;11.20;5.73;;;2.30;99.90;;;;;;5048267;28;20529;-70
2022/01/26 12:56:46;;;;;;;17.07;7.63;;;2.30;99.90;;;;;;5046261;28;20492;-70
2022/01/26 12:59:16;;;;;;;8.83;4.53;;;2.20;99.90;;;;;;5056834;28;20453;-69
2022/01/26 13:01:46;;;;;;;20.07;6.93;;;2.20;99.90;;;;;;5044032;28;20254;-69
2022/01/26 13:04:12;;;;;;;10.07;5.90;;;2.20;99.90;;;;;;5052758;28;20835;-69
2022/01/26 13:06:47;;;;;;;13.50;5.27;;;2.30;99.90;;;;;;5044496;28;20741;-70
2022/01/26 13:09:25;;;;;;;19.50;7.37;;;2.30;99.90;;;;;;5056683;28;20502;-70
2022/01/26 13:11:53;;;;;;;19.07;8.80;;;2.30;99.90;;;;;;5056918;28;20557;-71
2022/01/26 13:14:28;;;;;;;17.03;6.53;;;2.30;99.90;;;;;;5057136;28;20474;-69
2022/01/26 13:22:38;;;;;;;10.53;5.83;;;2.30;99.90;;;;;;5048558;28;20466;-69
2022/01/26 13:27:59;;;;;;;17.30;7.30;;;2.30;99.90;;;;;;5057032;28;20458;-67
2022/01/26 13:30:49;;;;;;;15.93;7.77;;;2.30;99.90;;;;;;5059730;28;20458;-69
2022/01/26 13:41:25;;;;;;;15.00;7.83;;;2.40;99.90;;;;;;5069250;28;20473;-70
2022/01/26 13:52:51;;;;;;;16.00;7.97;;;2.50;99.90;;;;;;5067290;28;20453;-70
2022/01/26 13:57:43;;;;;;;16.43;7.57;;;2.50;99.90;;;;;;5051227;28;20462;-70
2022/01/26 14:00:12;;;;;;;21.00;8.63;;;2.50;99.90;;;;;;5045547;28;20466;-69
2022/01/26 14:02:39;;;;;;;45.47;26.77;;;2.50;99.90;;;;;;5027296;28;20471;-68
2022/01/26 14:05:06;;;;;;;39.70;21.47;;;2.50;99.90;;;;;;5019929;28;20582;-70
2022/01/26 14:07:31;;;;;;;41.37;22.07;;;2.50;99.90;;;;;;5050115;28;20449;-69
2022/01/26 14:09:57;;;;;;;38.73;20.90;;;2.50;99.90;;;;;;5064263;28;20461;-70
2022/01/26 14:12:28;;;;;;;50.03;23.40;;;2.50;99.90;;;;;;5063078;28;20449;-70
2022/01/26 14:14:57;;;;;;;33.43;17.20;;;2.50;99.90;;;;;;5055848;28;20223;-70
2022/01/26 14:17:35;;;;;;;44.00;20.63;;;2.50;99.90;;;;;;5057829;28;20513;-70
2022/01/26 14:27:25;;;;;;;18.33;9.37;;;2.50;99.90;;;;;;5047197;28;20510;-69
2022/01/26 14:32:58;;;;;;;22.67;8.70;;;2.50;99.90;;;;;;5046300;28;20454;-70
2022/01/26 14:40:45;;;;;;;22.00;8.63;;;2.60;99.90;;;;;;5044262;28;20234;-70
2022/01/26 15:34:46;;;;;;;15.27;6.70;;;2.40;99.90;;;;;;5024778;28;20516;-70
2022/01/26 15:51:06;;;;;;;17.50;8.50;;;2.40;99.90;;;;;;5049756;28;20451;-69
2022/01/26 15:58:52;;;;;;;;;;;;;;;;;;;;;
2022/01/26 17:47:50;;;;;;;40.10;16.53;;;2.40;99.90;;;;;;5057966;28;20462;-69
2022/01/26 18:15:18;;;;;;;21.50;10.40;;;2.30;99.90;;;;;;5061213;28;20438;-69
2022/01/26 18:46:56;;;;;;;16.63;11.47;;;2.10;99.90;;;;;;5050713;28;20453;-68
2022/01/26 18:49:23;;;;;;;14.23;9.73;;;2.00;99.90;;;;;;5047644;28;20462;-69
2022/01/26 18:51:57;;;;;;;23.57;11.40;;;2.00;99.90;;;;;;5048242;28;20508;-69
2022/01/26 18:54:26;;;;;;;18.73;9.17;;;2.00;99.90;;;;;;5054242;28;20492;-69
2022/01/26 18:56:53;;;;;;;32.50;14.77;;;2.00;99.90;;;;;;5058483;28;20832;-68
2022/01/26 18:59:20;;;;;;;25.97;13.97;;;2.00;99.90;;;;;;5056807;28;20462;-68
2022/01/26 19:01:46;;;;;;;41.07;17.53;;;2.00;99.90;;;;;;5065141;28;20474;-69
2022/01/26 19:04:12;;;;;;;33.53;15.97;;;2.00;99.90;;;;;;5062350;28;20453;-68
2022/01/26 19:06:41;;;;;;;32.33;16.17;;;2.00;99.90;;;;;;5058974;28;20456;-69
2022/01/26 19:09:07;;;;;;;38.83;17.20;;;2.00;99.90;;;;;;5062806;28;20700;-68
2022/01/26 19:11:33;;;;;;;31.07;14.67;;;2.00;99.90;;;;;;5062149;28;20453;-68
2022/01/26 19:14:00;;;;;;;31.73;13.87;;;2.00;99.90;;;;;;5039651;28;20220;-68
2022/01/26 19:16:42;;;;;;;21.97;11.70;;;2.00;99.90;;;;;;5039514;28;20454;-69
2022/01/26 19:26:55;;;;;;;23.57;11.17;;;2.00;99.90;;;;;;5051041;28;20462;-70
2022/01/26 19:29:44;;;;;;;26.50;14.40;;;2.00;99.90;;;;;;5048764;28;20462;-68
2022/01/26 19:51:09;;;;;;;11.50;6.73;;;2.00;99.90;;;;;;5072136;28;20532;-71
2022/01/26 19:53:35;;;;;;;11.23;7.07;;;2.00;99.90;;;;;;5072503;28;20547;-68
2022/01/26 19:56:01;;;;;;;22.80;6.93;;;2.00;99.90;;;;;;5069388;28;20235;-69
2022/01/26 19:58:27;;;;;;;14.87;7.80;;;2.00;99.90;;;;;;5051768;28;20454;-69
2022/01/26 20:00:52;;;;;;;14.80;5.60;;;2.00;99.90;;;;;;5058659;28;20704;-69
2022/01/26 20:03:20;;;;;;;12.20;7.10;;;2.10;99.90;;;;;;5071760;28;20211;-69
2022/01/26 20:05:49;;;;;;;11.60;6.30;;;2.10;99.90;;;;;;5071390;28;20215;-69
2022/01/26 20:08:29;;;;;;;14.27;6.90;;;2.10;99.90;;;;;;5070495;28;20449;-70
2022/01/26 20:11:03;;;;;;;17.00;6.70;;;2.10;99.90;;;;;;5070812;28;20510;-69
2022/01/26 20:13:32;;;;;;;11.80;7.50;;;2.20;99.90;;;;;;5070337;28;20449;-69
2022/01/26 20:16:00;;;;;;;17.10;8.60;;;2.20;99.90;;;;;;5065007;28;20507;-70
2022/01/26 20:18:26;;;;;;;17.23;7.90;;;2.20;99.90;;;;;;5041487;28;20858;-69